sensor_id;sensor_type;location;lat;lon;timestamp;P1;durP1;ratioP1;P2;durP2;ratioP2
17494;SDS011;8864;51.970;4.614;2023-09-07T00:01:29;4.53;;;2.95;;
17494;SDS011;8864;51.970;4.614;2023-09-07T00:03:58;5.32;;;3.58;;
17494;SDS011;8864;51.970;4.614;2023-09-07T00:06:24;6.45;;;3.50;;
17494;SDS011;8864;51.970;4.614;2023-09-07T00:08:51;7.50;;;3.17;;
17494;SDS011;8864;51.970;4.614;2023-09-07T00:11:17;4.15;;;3.13;;
17494;SDS011;8864;51.970;4.614;2023-09-07T00:13:44;6.10;;;3.40;;
17494;SDS011;8864;51.970;4.614;2023-09-07T00:16:11;5.70;;;3.45;;
17494;SDS011;8864;51.970;4.614;2023-09-07T00:18:38;7.97;;;3.05;;
17494;SDS011;8864;51.970;4.614;2023-09-07T00:21:06;9.40;;;3.20;;
17494;SDS011;8864;51.970;4.614;2023-09-07T00:23:33;5.07;;;3.40;;
17494;SDS011;8864;51.970;4.614;2023-09-07T00:26:00;20.02;;;3.70;;
17494;SDS011;8864;51.970;4.614;2023-09-07T00:28:27;9.88;;;3.25;;
17494;SDS011;8864;51.970;4.614;2023-09-07T00:30:54;6.38;;;3.55;;
17494;SDS011;8864;51.970;4.614;2023-09-07T00:33:21;6.72;;;3.33;;
17494;SDS011;8864;51.970;4.614;2023-09-07T00:35:48;5.30;;;3.35;;
17494;SDS011;8864;51.970;4.614;2023-09-07T00:38:16;6.43;;;3.70;;
17494;SDS011;8864;51.970;4.614;2023-09-07T00:40:43;4.40;;;3.08;;
17494;SDS011;8864;51.970;4.614;2023-09-07T00:43:10;5.05;;;3.30;;
17494;SDS011;8864;51.970;4.614;2023-09-07T00:45:37;6.43;;;3.75;;
17494;SDS011;8864;51.970;4.614;2023-09-07T00:48:05;4.97;;;3.25;;
17494;SDS011;8864;51.970;4.614;2023-09-07T00:50:33;5.75;;;3.00;;
17494;SDS011;8864;51.970;4.614;2023-09-07T00:53:00;6.45;;;3.47;;
17494;SDS011;8864;51.970;4.614;2023-09-07T00:55:29;4.15;;;2.80;;
17494;SDS011;8864;51.970;4.614;2023-09-07T00:57:58;5.05;;;3.00;;
17494;SDS011;8864;51.970;4.614;2023-09-07T01:00:25;5.60;;;3.15;;
17494;SDS011;8864;51.970;4.614;2023-09-07T01:02:52;6.15;;;3.30;;
17494;SDS011;8864;51.970;4.614;2023-09-07T01:05:20;6.68;;;3.50;;
17494;SDS011;8864;51.970;4.614;2023-09-07T01:07:59;5.20;;;3.10;;
17494;SDS011;8864;51.970;4.614;2023-09-07T01:10:35;6.32;;;3.20;;
17494;SDS011;8864;51.970;4.614;2023-09-07T01:13:02;6.05;;;3.28;;
17494;SDS011;8864;51.970;4.614;2023-09-07T01:15:29;8.27;;;3.30;;
17494;SDS011;8864;51.970;4.614;2023-09-07T01:17:56;7.15;;;3.25;;
17494;SDS011;8864;51.970;4.614;2023-09-07T01:20:24;6.85;;;3.65;;
17494;SDS011;8864;51.970;4.614;2023-09-07T01:22:53;4.25;;;3.03;;
17494;SDS011;8864;51.970;4.614;2023-09-07T01:25:21;6.53;;;3.25;;
17494;SDS011;8864;51.970;4.614;2023-09-07T01:27:48;5.90;;;3.70;;
17494;SDS011;8864;51.970;4.614;2023-09-07T01:30:16;3.90;;;2.90;;
17494;SDS011;8864;51.970;4.614;2023-09-07T01:32:44;6.25;;;3.40;;
17494;SDS011;8864;51.970;4.614;2023-09-07T01:35:11;6.38;;;3.40;;
17494;SDS011;8864;51.970;4.614;2023-09-07T01:37:41;7.35;;;3.30;;
17494;SDS011;8864;51.970;4.614;2023-09-07T01:40:10;4.43;;;3.08;;
17494;SDS011;8864;51.970;4.614;2023-09-07T01:42:37;4.97;;;3.15;;
17494;SDS011;8864;51.970;4.614;2023-09-07T01:45:04;5.15;;;3.30;;
17494;SDS011;8864;51.970;4.614;2023-09-07T01:47:32;4.72;;;2.75;;
17494;SDS011;8864;51.970;4.614;2023-09-07T01:49:59;4.63;;;3.30;;
17494;SDS011;8864;51.970;4.614;2023-09-07T01:52:25;5.18;;;3.35;;
17494;SDS011;8864;51.970;4.614;2023-09-07T01:54:52;5.88;;;3.33;;
17494;SDS011;8864;51.970;4.614;2023-09-07T01:57:22;6.18;;;3.30;;
17494;SDS011;8864;51.970;4.614;2023-09-07T01:59:49;4.95;;;3.22;;
17494;SDS011;8864;51.970;4.614;2023-09-07T02:02:16;4.80;;;2.97;;
17494;SDS011;8864;51.970;4.614;2023-09-07T02:04:43;4.97;;;3.13;;
17494;SDS011;8864;51.970;4.614;2023-09-07T02:07:11;5.80;;;2.97;;
17494;SDS011;8864;51.970;4.614;2023-09-07T02:09:38;5.57;;;3.25;;
17494;SDS011;8864;51.970;4.614;2023-09-07T02:12:05;5.65;;;3.08;;
17494;SDS011;8864;51.970;4.614;2023-09-07T02:14:34;6.93;;;3.10;;
17494;SDS011;8864;51.970;4.614;2023-09-07T02:17:01;4.25;;;2.90;;
17494;SDS011;8864;51.970;4.614;2023-09-07T02:19:28;5.32;;;3.10;;
17494;SDS011;8864;51.970;4.614;2023-09-07T02:21:54;8.32;;;3.30;;
17494;SDS011;8864;51.970;4.614;2023-09-07T02:24:21;6.32;;;3.13;;
17494;SDS011;8864;51.970;4.614;2023-09-07T02:26:48;5.78;;;2.92;;
17494;SDS011;8864;51.970;4.614;2023-09-07T02:29:15;6.57;;;3.20;;
17494;SDS011;8864;51.970;4.614;2023-09-07T02:31:44;6.18;;;3.15;;
17494;SDS011;8864;51.970;4.614;2023-09-07T02:34:10;6.88;;;3.38;;
17494;SDS011;8864;51.970;4.614;2023-09-07T02:36:37;5.40;;;3.17;;
17494;SDS011;8864;51.970;4.614;2023-09-07T02:39:04;4.68;;;3.00;;
17494;SDS011;8864;51.970;4.614;2023-09-07T02:41:33;5.88;;;3.30;;
17494;SDS011;8864;51.970;4.614;2023-09-07T02:44:00;6.57;;;3.53;;
17494;SDS011;8864;51.970;4.614;2023-09-07T02:46:28;5.30;;;3.30;;
17494;SDS011;8864;51.970;4.614;2023-09-07T02:48:56;6.53;;;3.80;;
17494;SDS011;8864;51.970;4.614;2023-09-07T02:51:23;6.60;;;3.63;;
17494;SDS011;8864;51.970;4.614;2023-09-07T02:53:50;4.70;;;3.17;;
17494;SDS011;8864;51.970;4.614;2023-09-07T02:56:17;5.30;;;3.33;;
17494;SDS011;8864;51.970;4.614;2023-09-07T02:58:44;5.68;;;3.50;;
17494;SDS011;8864;51.970;4.614;2023-09-07T03:01:11;6.53;;;3.20;;
17494;SDS011;8864;51.970;4.614;2023-09-07T03:03:39;8.95;;;4.28;;
17494;SDS011;8864;51.970;4.614;2023-09-07T03:06:09;4.80;;;3.25;;
17494;SDS011;8864;51.970;4.614;2023-09-07T03:08:37;5.57;;;3.42;;
17494;SDS011;8864;51.970;4.614;2023-09-07T03:11:05;4.75;;;3.53;;
17494;SDS011;8864;51.970;4.614;2023-09-07T03:13:33;5.32;;;3.70;;
17494;SDS011;8864;51.970;4.614;2023-09-07T03:16:00;8.32;;;3.90;;
17494;SDS011;8864;51.970;4.614;2023-09-07T03:18:28;7.18;;;4.15;;
17494;SDS011;8864;51.970;4.614;2023-09-07T03:20:56;5.65;;;3.88;;
17494;SDS011;8864;51.970;4.614;2023-09-07T03:23:28;6.88;;;3.70;;
17494;SDS011;8864;51.970;4.614;2023-09-07T03:25:55;7.03;;;3.95;;
17494;SDS011;8864;51.970;4.614;2023-09-07T03:28:23;5.00;;;3.75;;
17494;SDS011;8864;51.970;4.614;2023-09-07T03:30:50;6.68;;;4.20;;
17494;SDS011;8864;51.970;4.614;2023-09-07T03:33:17;6.00;;;3.55;;
17494;SDS011;8864;51.970;4.614;2023-09-07T03:35:44;5.72;;;3.10;;
17494;SDS011;8864;51.970;4.614;2023-09-07T03:38:12;6.43;;;3.85;;
17494;SDS011;8864;51.970;4.614;2023-09-07T03:40:41;6.07;;;3.85;;
17494;SDS011;8864;51.970;4.614;2023-09-07T03:43:08;5.68;;;3.65;;
17494;SDS011;8864;51.970;4.614;2023-09-07T03:45:35;7.47;;;4.05;;
17494;SDS011;8864;51.970;4.614;2023-09-07T03:48:02;6.68;;;3.65;;
17494;SDS011;8864;51.970;4.614;2023-09-07T03:50:29;6.45;;;3.88;;
17494;SDS011;8864;51.970;4.614;2023-09-07T03:52:56;5.78;;;3.72;;
17494;SDS011;8864;51.970;4.614;2023-09-07T03:55:23;7.90;;;3.92;;
17494;SDS011;8864;51.970;4.614;2023-09-07T03:57:51;5.55;;;3.80;;
17494;SDS011;8864;51.970;4.614;2023-09-07T04:00:18;6.47;;;4.07;;
17494;SDS011;8864;51.970;4.614;2023-09-07T04:02:46;5.55;;;3.47;;
17494;SDS011;8864;51.970;4.614;2023-09-07T04:05:13;9.77;;;4.28;;
17494;SDS011;8864;51.970;4.614;2023-09-07T04:07:39;5.40;;;3.70;;
17494;SDS011;8864;51.970;4.614;2023-09-07T04:10:06;5.88;;;4.03;;
17494;SDS011;8864;51.970;4.614;2023-09-07T04:12:34;6.95;;;3.97;;
17494;SDS011;8864;51.970;4.614;2023-09-07T04:15:03;6.10;;;4.10;;
17494;SDS011;8864;51.970;4.614;2023-09-07T04:17:31;7.25;;;4.15;;
17494;SDS011;8864;51.970;4.614;2023-09-07T04:20:05;6.75;;;4.50;;
17494;SDS011;8864;51.970;4.614;2023-09-07T04:22:33;7.18;;;4.15;;
17494;SDS011;8864;51.970;4.614;2023-09-07T04:25:00;6.70;;;4.18;;
17494;SDS011;8864;51.970;4.614;2023-09-07T04:27:27;7.72;;;4.80;;
17494;SDS011;8864;51.970;4.614;2023-09-07T04:29:54;10.43;;;4.75;;
17494;SDS011;8864;51.970;4.614;2023-09-07T04:32:22;6.35;;;4.53;;
17494;SDS011;8864;51.970;4.614;2023-09-07T04:34:52;6.65;;;4.57;;
17494;SDS011;8864;51.970;4.614;2023-09-07T04:37:20;8.45;;;4.55;;
17494;SDS011;8864;51.970;4.614;2023-09-07T04:39:49;8.68;;;4.53;;
17494;SDS011;8864;51.970;4.614;2023-09-07T04:42:17;6.32;;;4.20;;
17494;SDS011;8864;51.970;4.614;2023-09-07T04:44:44;10.10;;;4.85;;
17494;SDS011;8864;51.970;4.614;2023-09-07T04:47:11;7.43;;;4.65;;
17494;SDS011;8864;51.970;4.614;2023-09-07T04:49:39;8.25;;;4.47;;
17494;SDS011;8864;51.970;4.614;2023-09-07T04:52:06;10.05;;;4.90;;
17494;SDS011;8864;51.970;4.614;2023-09-07T04:54:34;7.82;;;5.25;;
17494;SDS011;8864;51.970;4.614;2023-09-07T04:57:01;12.10;;;5.38;;
17494;SDS011;8864;51.970;4.614;2023-09-07T04:59:27;11.63;;;5.18;;
17494;SDS011;8864;51.970;4.614;2023-09-07T05:01:54;11.77;;;5.35;;
17494;SDS011;8864;51.970;4.614;2023-09-07T05:04:24;12.30;;;6.13;;
17494;SDS011;8864;51.970;4.614;2023-09-07T05:06:52;11.85;;;5.30;;
17494;SDS011;8864;51.970;4.614;2023-09-07T05:09:19;9.85;;;4.15;;
17494;SDS011;8864;51.970;4.614;2023-09-07T05:11:46;11.45;;;4.75;;
17494;SDS011;8864;51.970;4.614;2023-09-07T05:14:13;9.23;;;4.43;;
17494;SDS011;8864;51.970;4.614;2023-09-07T05:16:42;11.07;;;4.50;;
17494;SDS011;8864;51.970;4.614;2023-09-07T05:19:09;13.52;;;6.28;;
17494;SDS011;8864;51.970;4.614;2023-09-07T05:21:36;8.73;;;5.50;;
17494;SDS011;8864;51.970;4.614;2023-09-07T05:24:04;18.50;;;6.30;;
17494;SDS011;8864;51.970;4.614;2023-09-07T05:26:32;10.52;;;5.75;;
17494;SDS011;8864;51.970;4.614;2023-09-07T05:28:58;11.18;;;6.35;;
17494;SDS011;8864;51.970;4.614;2023-09-07T05:31:25;13.95;;;6.70;;
17494;SDS011;8864;51.970;4.614;2023-09-07T05:33:53;9.02;;;5.75;;
17494;SDS011;8864;51.970;4.614;2023-09-07T05:36:19;13.00;;;6.97;;
17494;SDS011;8864;51.970;4.614;2023-09-07T05:38:46;10.18;;;6.00;;
17494;SDS011;8864;51.970;4.614;2023-09-07T05:41:15;9.02;;;5.63;;
17494;SDS011;8864;51.970;4.614;2023-09-07T05:43:42;9.48;;;5.85;;
17494;SDS011;8864;51.970;4.614;2023-09-07T05:46:08;14.05;;;6.35;;
17494;SDS011;8864;51.970;4.614;2023-09-07T05:48:35;25.58;;;7.60;;
17494;SDS011;8864;51.970;4.614;2023-09-07T05:51:02;28.23;;;8.50;;
17494;SDS011;8864;51.970;4.614;2023-09-07T05:53:29;25.15;;;7.68;;
17494;SDS011;8864;51.970;4.614;2023-09-07T05:55:56;24.58;;;7.80;;
17494;SDS011;8864;51.970;4.614;2023-09-07T05:58:25;14.98;;;6.63;;
17494;SDS011;8864;51.970;4.614;2023-09-07T06:00:52;15.00;;;6.18;;
17494;SDS011;8864;51.970;4.614;2023-09-07T06:03:19;17.80;;;6.88;;
17494;SDS011;8864;51.970;4.614;2023-09-07T06:05:46;21.42;;;6.82;;
17494;SDS011;8864;51.970;4.614;2023-09-07T06:08:13;20.42;;;6.47;;
17494;SDS011;8864;51.970;4.614;2023-09-07T06:10:41;14.52;;;5.70;;
17494;SDS011;8864;51.970;4.614;2023-09-07T06:13:07;16.95;;;6.45;;
17494;SDS011;8864;51.970;4.614;2023-09-07T06:15:36;13.55;;;5.53;;
17494;SDS011;8864;51.970;4.614;2023-09-07T06:18:03;16.92;;;5.25;;
17494;SDS011;8864;51.970;4.614;2023-09-07T06:20:30;13.27;;;5.80;;
17494;SDS011;8864;51.970;4.614;2023-09-07T06:22:57;13.48;;;5.50;;
17494;SDS011;8864;51.970;4.614;2023-09-07T06:25:24;14.38;;;4.88;;
17494;SDS011;8864;51.970;4.614;2023-09-07T06:27:51;11.68;;;4.57;;
17494;SDS011;8864;51.970;4.614;2023-09-07T06:30:18;13.32;;;5.80;;
17494;SDS011;8864;51.970;4.614;2023-09-07T06:32:46;13.27;;;5.05;;
17494;SDS011;8864;51.970;4.614;2023-09-07T06:35:13;10.60;;;4.60;;
17494;SDS011;8864;51.970;4.614;2023-09-07T06:37:40;10.40;;;4.97;;
17494;SDS011;8864;51.970;4.614;2023-09-07T06:40:09;10.40;;;5.03;;
17494;SDS011;8864;51.970;4.614;2023-09-07T06:42:36;9.35;;;4.75;;
17494;SDS011;8864;51.970;4.614;2023-09-07T06:45:04;11.70;;;5.07;;
17494;SDS011;8864;51.970;4.614;2023-09-07T06:47:32;13.02;;;4.75;;
17494;SDS011;8864;51.970;4.614;2023-09-07T06:50:01;9.90;;;4.57;;
17494;SDS011;8864;51.970;4.614;2023-09-07T06:52:28;11.43;;;4.70;;
17494;SDS011;8864;51.970;4.614;2023-09-07T06:54:55;9.55;;;4.47;;
17494;SDS011;8864;51.970;4.614;2023-09-07T06:57:22;6.97;;;4.35;;
17494;SDS011;8864;51.970;4.614;2023-09-07T06:59:49;7.45;;;3.72;;
17494;SDS011;8864;51.970;4.614;2023-09-07T07:02:16;10.93;;;4.18;;
17494;SDS011;8864;51.970;4.614;2023-09-07T07:04:43;9.38;;;4.30;;
17494;SDS011;8864;51.970;4.614;2023-09-07T07:07:12;8.95;;;4.22;;
17494;SDS011;8864;51.970;4.614;2023-09-07T07:09:39;8.93;;;4.25;;
17494;SDS011;8864;51.970;4.614;2023-09-07T07:12:06;7.55;;;4.40;;
17494;SDS011;8864;51.970;4.614;2023-09-07T07:14:33;11.70;;;4.47;;
17494;SDS011;8864;51.970;4.614;2023-09-07T07:17:00;10.30;;;4.80;;
17494;SDS011;8864;51.970;4.614;2023-09-07T07:19:29;8.75;;;4.43;;
17494;SDS011;8864;51.970;4.614;2023-09-07T07:21:56;6.50;;;3.80;;
17494;SDS011;8864;51.970;4.614;2023-09-07T07:24:25;8.73;;;4.25;;
17494;SDS011;8864;51.970;4.614;2023-09-07T07:26:52;10.10;;;4.43;;
17494;SDS011;8864;51.970;4.614;2023-09-07T07:29:18;10.15;;;3.80;;
17494;SDS011;8864;51.970;4.614;2023-09-07T07:31:45;11.05;;;3.78;;
17494;SDS011;8864;51.970;4.614;2023-09-07T07:34:13;7.05;;;3.53;;
17494;SDS011;8864;51.970;4.614;2023-09-07T07:36:40;11.80;;;3.83;;
17494;SDS011;8864;51.970;4.614;2023-09-07T07:39:07;6.55;;;3.30;;
17494;SDS011;8864;51.970;4.614;2023-09-07T07:41:35;8.60;;;3.88;;
17494;SDS011;8864;51.970;4.614;2023-09-07T07:44:03;7.25;;;3.65;;
17494;SDS011;8864;51.970;4.614;2023-09-07T07:46:30;8.48;;;3.88;;
17494;SDS011;8864;51.970;4.614;2023-09-07T07:48:57;9.50;;;3.70;;
17494;SDS011;8864;51.970;4.614;2023-09-07T07:51:24;7.00;;;3.75;;
17494;SDS011;8864;51.970;4.614;2023-09-07T07:53:53;8.77;;;4.20;;
17494;SDS011;8864;51.970;4.614;2023-09-07T07:56:21;10.18;;;4.50;;
17494;SDS011;8864;51.970;4.614;2023-09-07T07:58:51;9.13;;;3.33;;
17494;SDS011;8864;51.970;4.614;2023-09-07T08:01:19;5.95;;;3.30;;
17494;SDS011;8864;51.970;4.614;2023-09-07T08:03:46;7.93;;;3.70;;
17494;SDS011;8864;51.970;4.614;2023-09-07T08:06:13;9.35;;;3.47;;
17494;SDS011;8864;51.970;4.614;2023-09-07T08:08:41;6.03;;;3.60;;
17494;SDS011;8864;51.970;4.614;2023-09-07T08:11:07;5.32;;;3.17;;
17494;SDS011;8864;51.970;4.614;2023-09-07T08:13:34;7.00;;;3.83;;
17494;SDS011;8864;51.970;4.614;2023-09-07T08:16:03;9.35;;;4.05;;
17494;SDS011;8864;51.970;4.614;2023-09-07T08:18:32;7.40;;;3.65;;
17494;SDS011;8864;51.970;4.614;2023-09-07T08:20:59;9.20;;;3.85;;
17494;SDS011;8864;51.970;4.614;2023-09-07T08:23:27;7.72;;;3.92;;
17494;SDS011;8864;51.970;4.614;2023-09-07T08:25:54;5.25;;;3.22;;
17494;SDS011;8864;51.970;4.614;2023-09-07T08:28:21;7.03;;;3.72;;
17494;SDS011;8864;51.970;4.614;2023-09-07T08:30:48;6.70;;;3.80;;
17494;SDS011;8864;51.970;4.614;2023-09-07T08:33:19;8.13;;;3.85;;
17494;SDS011;8864;51.970;4.614;2023-09-07T08:35:51;10.80;;;4.05;;
17494;SDS011;8864;51.970;4.614;2023-09-07T08:38:18;7.93;;;3.20;;
17494;SDS011;8864;51.970;4.614;2023-09-07T08:40:47;5.93;;;3.20;;
17494;SDS011;8864;51.970;4.614;2023-09-07T08:43:14;5.22;;;2.80;;
17494;SDS011;8864;51.970;4.614;2023-09-07T08:45:46;12.30;;;3.65;;
17494;SDS011;8864;51.970;4.614;2023-09-07T08:48:17;10.05;;;3.70;;
17494;SDS011;8864;51.970;4.614;2023-09-07T08:50:46;13.07;;;4.53;;
17494;SDS011;8864;51.970;4.614;2023-09-07T08:53:17;10.77;;;4.10;;
17494;SDS011;8864;51.970;4.614;2023-09-07T08:55:45;8.98;;;3.65;;
17494;SDS011;8864;51.970;4.614;2023-09-07T08:58:13;7.82;;;3.53;;
17494;SDS011;8864;51.970;4.614;2023-09-07T09:00:40;8.10;;;3.33;;
17494;SDS011;8864;51.970;4.614;2023-09-07T09:03:08;5.85;;;3.53;;
17494;SDS011;8864;51.970;4.614;2023-09-07T09:05:37;9.15;;;3.58;;
17494;SDS011;8864;51.970;4.614;2023-09-07T09:08:06;7.75;;;3.22;;
17494;SDS011;8864;51.970;4.614;2023-09-07T09:10:33;8.18;;;3.50;;
17494;SDS011;8864;51.970;4.614;2023-09-07T09:13:00;13.32;;;3.60;;
17494;SDS011;8864;51.970;4.614;2023-09-07T09:15:27;7.22;;;3.60;;
17494;SDS011;8864;51.970;4.614;2023-09-07T09:17:53;8.95;;;3.55;;
17494;SDS011;8864;51.970;4.614;2023-09-07T09:20:21;6.88;;;2.97;;
17494;SDS011;8864;51.970;4.614;2023-09-07T09:22:54;10.23;;;3.17;;
17494;SDS011;8864;51.970;4.614;2023-09-07T09:25:21;7.68;;;3.00;;
17494;SDS011;8864;51.970;4.614;2023-09-07T09:27:48;9.10;;;3.10;;
17494;SDS011;8864;51.970;4.614;2023-09-07T09:30:15;8.27;;;3.35;;
17494;SDS011;8864;51.970;4.614;2023-09-07T09:32:43;9.73;;;2.78;;
17494;SDS011;8864;51.970;4.614;2023-09-07T09:35:10;16.52;;;4.47;;
17494;SDS011;8864;51.970;4.614;2023-09-07T09:37:43;8.68;;;3.72;;
17494;SDS011;8864;51.970;4.614;2023-09-07T09:40:14;7.88;;;3.35;;
17494;SDS011;8864;51.970;4.614;2023-09-07T09:42:42;8.18;;;3.60;;
17494;SDS011;8864;51.970;4.614;2023-09-07T09:45:10;11.90;;;3.70;;
17494;SDS011;8864;51.970;4.614;2023-09-07T09:47:38;12.40;;;3.50;;
17494;SDS011;8864;51.970;4.614;2023-09-07T09:50:06;6.78;;;3.25;;
17494;SDS011;8864;51.970;4.614;2023-09-07T09:52:37;9.38;;;2.80;;
17494;SDS011;8864;51.970;4.614;2023-09-07T09:55:04;7.80;;;3.65;;
17494;SDS011;8864;51.970;4.614;2023-09-07T09:57:35;5.55;;;2.97;;
17494;SDS011;8864;51.970;4.614;2023-09-07T10:00:02;8.30;;;3.38;;
17494;SDS011;8864;51.970;4.614;2023-09-07T10:02:45;8.02;;;3.10;;
17494;SDS011;8864;51.970;4.614;2023-09-07T10:05:15;5.15;;;2.90;;
17494;SDS011;8864;51.970;4.614;2023-09-07T10:07:42;10.45;;;3.28;;
17494;SDS011;8864;51.970;4.614;2023-09-07T10:10:10;7.53;;;2.83;;
17494;SDS011;8864;51.970;4.614;2023-09-07T10:12:41;5.70;;;2.85;;
17494;SDS011;8864;51.970;4.614;2023-09-07T10:15:21;7.35;;;3.20;;
17494;SDS011;8864;51.970;4.614;2023-09-07T10:17:49;7.97;;;3.25;;
17494;SDS011;8864;51.970;4.614;2023-09-07T10:20:18;6.97;;;2.92;;
17494;SDS011;8864;51.970;4.614;2023-09-07T10:22:49;6.32;;;3.05;;
17494;SDS011;8864;51.970;4.614;2023-09-07T10:25:19;6.30;;;2.80;;
17494;SDS011;8864;51.970;4.614;2023-09-07T10:27:48;7.47;;;2.90;;
17494;SDS011;8864;51.970;4.614;2023-09-07T10:30:16;5.43;;;2.72;;
17494;SDS011;8864;51.970;4.614;2023-09-07T10:32:48;7.80;;;3.00;;
17494;SDS011;8864;51.970;4.614;2023-09-07T10:35:16;4.28;;;2.45;;
17494;SDS011;8864;51.970;4.614;2023-09-07T10:37:47;7.90;;;2.97;;
17494;SDS011;8864;51.970;4.614;2023-09-07T10:40:18;4.95;;;3.00;;
17494;SDS011;8864;51.970;4.614;2023-09-07T10:42:46;6.00;;;3.20;;
17494;SDS011;8864;51.970;4.614;2023-09-07T10:45:15;9.15;;;3.22;;
17494;SDS011;8864;51.970;4.614;2023-09-07T10:47:42;5.10;;;2.67;;
17494;SDS011;8864;51.970;4.614;2023-09-07T10:50:11;4.38;;;2.90;;
17494;SDS011;8864;51.970;4.614;2023-09-07T10:52:39;5.55;;;2.90;;
17494;SDS011;8864;51.970;4.614;2023-09-07T10:55:07;4.93;;;2.83;;
17494;SDS011;8864;51.970;4.614;2023-09-07T10:57:41;3.85;;;2.45;;
17494;SDS011;8864;51.970;4.614;2023-09-07T11:00:10;3.60;;;2.28;;
17494;SDS011;8864;51.970;4.614;2023-09-07T11:02:40;3.72;;;2.60;;
17494;SDS011;8864;51.970;4.614;2023-09-07T11:05:08;4.88;;;2.97;;
17494;SDS011;8864;51.970;4.614;2023-09-07T11:07:36;9.13;;;2.72;;
17494;SDS011;8864;51.970;4.614;2023-09-07T11:10:08;6.68;;;2.72;;
17494;SDS011;8864;51.970;4.614;2023-09-07T11:12:39;6.63;;;2.90;;
17494;SDS011;8864;51.970;4.614;2023-09-07T11:15:08;5.47;;;2.95;;
17494;SDS011;8864;51.970;4.614;2023-09-07T11:17:36;5.53;;;2.90;;
17494;SDS011;8864;51.970;4.614;2023-09-07T11:20:07;5.93;;;3.00;;
17494;SDS011;8864;51.970;4.614;2023-09-07T11:22:35;6.93;;;2.95;;
17494;SDS011;8864;51.970;4.614;2023-09-07T11:25:04;5.80;;;2.78;;
17494;SDS011;8864;51.970;4.614;2023-09-07T11:27:32;4.55;;;2.65;;
17494;SDS011;8864;51.970;4.614;2023-09-07T11:30:00;5.30;;;3.13;;
17494;SDS011;8864;51.970;4.614;2023-09-07T11:32:33;4.80;;;2.67;;
17494;SDS011;8864;51.970;4.614;2023-09-07T11:35:00;5.88;;;2.90;;
17494;SDS011;8864;51.970;4.614;2023-09-07T11:37:28;5.45;;;2.80;;
17494;SDS011;8864;51.970;4.614;2023-09-07T11:39:57;3.42;;;2.50;;
17494;SDS011;8864;51.970;4.614;2023-09-07T11:42:24;4.43;;;2.58;;
17494;SDS011;8864;51.970;4.614;2023-09-07T11:44:51;5.43;;;2.67;;
17494;SDS011;8864;51.970;4.614;2023-09-07T11:47:18;5.35;;;2.85;;
17494;SDS011;8864;51.970;4.614;2023-09-07T11:49:45;11.25;;;2.58;;
17494;SDS011;8864;51.970;4.614;2023-09-07T11:52:12;6.95;;;2.67;;
17494;SDS011;8864;51.970;4.614;2023-09-07T11:54:40;6.90;;;2.88;;
17494;SDS011;8864;51.970;4.614;2023-09-07T11:57:07;10.85;;;3.10;;
17494;SDS011;8864;51.970;4.614;2023-09-07T11:59:34;9.57;;;3.13;;
17494;SDS011;8864;51.970;4.614;2023-09-07T12:02:01;6.53;;;2.85;;
17494;SDS011;8864;51.970;4.614;2023-09-07T12:04:28;9.20;;;2.53;;
17494;SDS011;8864;51.970;4.614;2023-09-07T12:06:55;10.48;;;3.03;;
17494;SDS011;8864;51.970;4.614;2023-09-07T12:09:22;10.45;;;3.03;;
17494;SDS011;8864;51.970;4.614;2023-09-07T12:11:51;6.15;;;2.92;;
17494;SDS011;8864;51.970;4.614;2023-09-07T12:14:17;7.40;;;3.05;;
17494;SDS011;8864;51.970;4.614;2023-09-07T12:16:44;6.85;;;2.70;;
17494;SDS011;8864;51.970;4.614;2023-09-07T12:19:11;10.32;;;2.75;;
17494;SDS011;8864;51.970;4.614;2023-09-07T12:21:38;4.57;;;2.50;;
17494;SDS011;8864;51.970;4.614;2023-09-07T12:24:07;5.72;;;2.80;;
17494;SDS011;8864;51.970;4.614;2023-09-07T12:26:34;6.47;;;2.75;;
17494;SDS011;8864;51.970;4.614;2023-09-07T12:29:03;10.50;;;2.88;;
17494;SDS011;8864;51.970;4.614;2023-09-07T12:31:31;6.07;;;2.47;;
17494;SDS011;8864;51.970;4.614;2023-09-07T12:33:58;6.18;;;2.72;;
17494;SDS011;8864;51.970;4.614;2023-09-07T12:36:25;6.07;;;2.65;;
17494;SDS011;8864;51.970;4.614;2023-09-07T12:38:54;4.35;;;2.90;;
17494;SDS011;8864;51.970;4.614;2023-09-07T12:41:26;9.18;;;2.50;;
17494;SDS011;8864;51.970;4.614;2023-09-07T12:43:53;11.43;;;2.50;;
17494;SDS011;8864;51.970;4.614;2023-09-07T12:46:21;4.45;;;2.60;;
17494;SDS011;8864;51.970;4.614;2023-09-07T12:48:48;3.58;;;2.70;;
17494;SDS011;8864;51.970;4.614;2023-09-07T12:51:19;4.32;;;2.70;;
17494;SDS011;8864;51.970;4.614;2023-09-07T12:53:46;8.25;;;2.80;;
17494;SDS011;8864;51.970;4.614;2023-09-07T12:56:13;6.88;;;2.78;;
17494;SDS011;8864;51.970;4.614;2023-09-07T12:58:40;4.50;;;2.45;;
17494;SDS011;8864;51.970;4.614;2023-09-07T13:01:07;4.63;;;2.60;;
17494;SDS011;8864;51.970;4.614;2023-09-07T13:03:37;5.20;;;2.80;;
17494;SDS011;8864;51.970;4.614;2023-09-07T13:06:04;6.68;;;2.80;;
17494;SDS011;8864;51.970;4.614;2023-09-07T13:08:31;3.90;;;2.38;;
17494;SDS011;8864;51.970;4.614;2023-09-07T13:10:58;7.68;;;2.53;;
17494;SDS011;8864;51.970;4.614;2023-09-07T13:13:25;4.40;;;2.75;;
17494;SDS011;8864;51.970;4.614;2023-09-07T13:15:54;4.38;;;2.63;;
17494;SDS011;8864;51.970;4.614;2023-09-07T13:18:21;4.20;;;2.45;;
17494;SDS011;8864;51.970;4.614;2023-09-07T13:20:50;2.95;;;2.47;;
17494;SDS011;8864;51.970;4.614;2023-09-07T13:23:20;4.72;;;2.70;;
17494;SDS011;8864;51.970;4.614;2023-09-07T13:25:47;7.75;;;2.40;;
17494;SDS011;8864;51.970;4.614;2023-09-07T13:28:14;6.80;;;2.60;;
17494;SDS011;8864;51.970;4.614;2023-09-07T13:30:41;6.15;;;2.50;;
17494;SDS011;8864;51.970;4.614;2023-09-07T13:33:08;5.22;;;2.50;;
17494;SDS011;8864;51.970;4.614;2023-09-07T13:35:34;5.57;;;2.85;;
17494;SDS011;8864;51.970;4.614;2023-09-07T13:38:04;9.57;;;2.50;;
17494;SDS011;8864;51.970;4.614;2023-09-07T13:40:30;5.32;;;2.45;;
17494;SDS011;8864;51.970;4.614;2023-09-07T13:42:57;6.55;;;2.47;;
17494;SDS011;8864;51.970;4.614;2023-09-07T13:45:24;5.05;;;2.63;;
17494;SDS011;8864;51.970;4.614;2023-09-07T13:47:52;3.78;;;2.38;;
17494;SDS011;8864;51.970;4.614;2023-09-07T13:50:19;5.82;;;2.78;;
17494;SDS011;8864;51.970;4.614;2023-09-07T13:52:46;9.23;;;2.47;;
17494;SDS011;8864;51.970;4.614;2023-09-07T13:55:14;5.03;;;2.60;;
17494;SDS011;8864;51.970;4.614;2023-09-07T13:57:41;4.50;;;2.45;;
17494;SDS011;8864;51.970;4.614;2023-09-07T14:00:08;5.35;;;2.45;;
17494;SDS011;8864;51.970;4.614;2023-09-07T14:02:35;3.42;;;2.20;;
17494;SDS011;8864;51.970;4.614;2023-09-07T14:05:02;3.13;;;2.25;;
17494;SDS011;8864;51.970;4.614;2023-09-07T14:07:30;4.03;;;2.30;;
17494;SDS011;8864;51.970;4.614;2023-09-07T14:09:57;2.83;;;2.40;;
17494;SDS011;8864;51.970;4.614;2023-09-07T14:12:25;4.82;;;2.65;;
17494;SDS011;8864;51.970;4.614;2023-09-07T14:14:52;4.50;;;2.78;;
17494;SDS011;8864;51.970;4.614;2023-09-07T14:17:19;4.15;;;2.50;;
17494;SDS011;8864;51.970;4.614;2023-09-07T14:19:46;4.43;;;3.00;;
17494;SDS011;8864;51.970;4.614;2023-09-07T14:22:13;3.95;;;2.58;;
17494;SDS011;8864;51.970;4.614;2023-09-07T14:24:40;4.35;;;2.45;;
17494;SDS011;8864;51.970;4.614;2023-09-07T14:27:09;5.68;;;2.50;;
17494;SDS011;8864;51.970;4.614;2023-09-07T14:29:38;4.05;;;2.65;;
17494;SDS011;8864;51.970;4.614;2023-09-07T14:32:05;4.13;;;2.58;;
17494;SDS011;8864;51.970;4.614;2023-09-07T14:34:32;3.33;;;2.10;;
17494;SDS011;8864;51.970;4.614;2023-09-07T14:36:59;5.03;;;2.60;;
17494;SDS011;8864;51.970;4.614;2023-09-07T14:39:27;3.75;;;2.47;;
17494;SDS011;8864;51.970;4.614;2023-09-07T14:41:54;4.28;;;2.47;;
17494;SDS011;8864;51.970;4.614;2023-09-07T14:44:21;4.82;;;2.83;;
17494;SDS011;8864;51.970;4.614;2023-09-07T14:46:49;3.45;;;2.55;;
17494;SDS011;8864;51.970;4.614;2023-09-07T14:49:16;4.07;;;2.38;;
17494;SDS011;8864;51.970;4.614;2023-09-07T14:51:43;3.78;;;2.67;;
17494;SDS011;8864;51.970;4.614;2023-09-07T14:54:11;3.72;;;2.60;;
17494;SDS011;8864;51.970;4.614;2023-09-07T14:56:38;5.72;;;2.47;;
17494;SDS011;8864;51.970;4.614;2023-09-07T14:59:05;4.07;;;2.67;;
17494;SDS011;8864;51.970;4.614;2023-09-07T15:01:32;4.03;;;2.47;;